Dothan, AL

6:25 PM CDT on April 27, 2017 (GMT -0500)
cambridge | | Change Station

Elev 328 ft 31.21 °N, 85.44 °W | Updated 12 seconds ago

Partly Cloudy
Partly Cloudy
79.6 °F
Feels Like 84 °F
N
3.0
Wind Variable Wind from SW

Today
High -- | Low -- °F
--% Chance of Precip.
Yesterday
High -- | Low -- °F
Precip. -- in
Pressure 29.84 in
Visibility 10.0 miles
Clouds Scattered Clouds 2500 ft
Heat Index 84 °F
Dew Point 73 °F
Humidity 81%
Rainfall 0.02 in
Snow Depth Not available.
6:00 AM 7:18 PM
Waxing Crescent, 3% visible
METAR KDHN 272153Z 19015G21KT 10SM SCT025 28/23 A2986 RMK AO2 SLP105 T02780228
Pressure 29.84 in
Visibility 10.0 miles
Clouds Scattered Clouds 2500 ft
Heat Index 84 °F
Dew Point 73 °F
Humidity 81%
Rainfall 0.02 in
Snow Depth Not available.
6:00 AM 7:18 PM
Waxing Crescent, 3% visible
METAR KDHN 272153Z 19015G21KT 10SM SCT025 28/23 A2986 RMK AO2 SLP105 T02780228

Get Severe Weather Alerts

Thanks for signing up!

Be on the lookout for a verification email in your inbox.

You'll start receiving the daily forecast at 8 AM.

×

10-Day Weather Forecast

Almanac

Astronomy

Apr. 27, 2017 Rise Set
Actual Time
Civil Twilight
Nautical Twilight
Astronomical Twilight
Moon
Length of Visible Light
Length of Day
Tomorrow will be .
, % of the Moon is Illuminated

Today's Extremes

State Highs State Lows

Community

WunderPhotos

WunderBlog® & News

Nearby

Air Quality

  Air Quality AQ Index Pollutant
Not available.

Snow Depth

Station Depth Elevation

Earthquake Activity

City Distance Mag. Time & Date
Minimum magnitude displayed is 2.5.

Coastal Water Temperatures

Place Temperature

Stations

Nearby Weather Stations

Station Location Temp. Windchill Dew Point Humidity Wind Precip. Elev Updated Type
                   

Watches & Warnings

There are currently no watches in effect.